Time;durP1;ratioP1;P1;durP2;ratioP2;P2;SDS_P1;SDS_P2;PMS_P1;PMS_P2;Temp;Humidity;BMP_temperature;BMP_pressure;BME280_temperature;BME280_humidity;BME280_pressure;Samples;Min_cycle;Max_cycle;Signal;HPM_P1;HPM_P2
2021/03/20 00:01:12;;;;;;;;;;;;;;;8.44;33.98;102493.75;4835796;29;19932;-74
2021/03/20 00:03:39;;;;;;;;;;;;;;;8.43;34.31;102498.97;4843914;29;19958;-74
2021/03/20 00:06:06;;;;;;;;;;;;;;;8.41;34.63;102490.19;4849336;29;20421;-74
2021/03/20 00:08:41;;;;;;;;;;;;;;;8.38;34.60;102479.59;4849704;29;19932;-75
2021/03/20 00:11:08;;;;;;;;;;;;;;;8.35;35.00;102480.44;4830308;29;20577;-74
2021/03/20 00:13:35;;;;;;;;;;;;;;;8.34;34.61;102483.06;4850360;29;19974;-73
2021/03/20 00:16:03;;;;;;;;;;;;;;;8.32;34.60;102483.06;4836970;29;21514;-73
2021/03/20 00:18:31;;;;;;;;;;;;;;;8.31;34.74;102481.28;4827447;29;20529;-75
2021/03/20 00:20:58;;;;;;;;;;;;;;;8.29;34.37;102483.03;4829064;29;19940;-76
2021/03/20 00:23:25;;;;;;;;;;;;;;;8.27;35.00;102488.31;4840439;29;19960;-74
2021/03/20 00:25:52;;;;;;;;;;;;;;;8.25;35.16;102482.13;4831832;29;19942;-74
2021/03/20 00:28:21;;;;;;;;;;;;;;;8.22;34.52;102466.28;4829111;29;20266;-74
2021/03/20 00:30:49;;;;;;;;;;;;;;;8.21;34.93;102472.41;4840492;29;20000;-74
2021/03/20 00:33:16;;;;;;;;;;;;;;;8.18;35.21;102469.75;4840972;29;20028;-74
2021/03/20 00:35:45;;;;;;;;;;;;;;;8.17;34.72;102472.34;4829970;29;19933;-74
2021/03/20 00:38:12;;;;;;;;;;;;;;;8.14;35.42;102468.84;4829971;29;19939;-74
2021/03/20 00:40:40;;;;;;;;;;;;;;;8.13;35.18;102468.81;4827859;29;19932;-75
2021/03/20 00:43:07;;;;;;;;;;;;;;;8.12;35.01;102465.28;4842812;29;19951;-73
2021/03/20 00:45:33;;;;;;;;;;;;;;;8.08;35.21;102460.84;4839669;29;19936;-73
2021/03/20 00:48:03;;;;;;;;;;;;;;;8.05;34.77;102452.03;4853796;29;19933;-74
2021/03/20 00:50:30;;;;;;;;;;;;;;;8.02;35.30;102452.00;4834918;29;19944;-74
2021/03/20 00:52:59;;;;;;;;;;;;;;;8.00;35.34;102440.53;4829665;29;19937;-75
2021/03/20 00:55:27;;;;;;;;;;;;;;;7.98;34.94;102441.44;4830110;29;19937;-75
2021/03/20 00:57:54;;;;;;;;;;;;;;;7.95;35.34;102435.25;4829805;29;19943;-75
2021/03/20 01:00:22;;;;;;;;;;;;;;;7.93;35.36;102423.78;4828607;29;19932;-74
2021/03/20 01:02:50;;;;;;;;;;;;;;;7.90;35.33;102421.13;4826039;29;20059;-74
2021/03/20 01:05:19;;;;;;;;;;;;;;;7.87;35.15;102427.25;4831719;29;19963;-76
2021/03/20 01:07:47;;;;;;;;;;;;;;;7.82;35.35;102421.91;4843686;29;20392;-74
2021/03/20 01:10:17;;;;;;;;;;;;;;;7.79;35.56;102426.28;4842996;29;19975;-74
2021/03/20 01:12:44;;;;;;;;;;;;;;;7.76;35.72;102420.97;4823230;29;19996;-74
2021/03/20 01:15:13;;;;;;;;;;;;;;;7.76;35.41;102420.97;4835754;29;20003;-74
2021/03/20 01:17:40;;;;;;;;;;;;;;;7.73;35.24;102421.81;4845373;29;19960;-75
2021/03/20 01:20:08;;;;;;;;;;;;;;;7.72;35.47;102424.44;4845892;29;20353;-75
2021/03/20 01:22:35;;;;;;;;;;;;;;;7.68;35.48;102420.00;4831595;29;19943;-75
2021/03/20 01:25:03;;;;;;;;;;;;;;;7.68;35.85;102430.53;4847443;29;20498;-74
2021/03/20 01:27:32;;;;;;;;;;;;;;;7.69;35.36;102419.16;4843825;29;19936;-74
2021/03/20 01:29:59;;;;;;;;;;;;;;;7.68;35.56;102422.63;4828839;29;19936;-74
2021/03/20 01:32:27;;;;;;;;;;;;;;;7.67;35.09;102421.78;4845516;29;19936;-74
2021/03/20 01:34:54;;;;;;;;;;;;;;;7.65;35.37;102419.09;4848592;29;19948;-74
2021/03/20 01:37:21;;;;;;;;;;;;;;;7.65;35.65;102410.31;4847204;29;19932;-75
2021/03/20 01:39:48;;;;;;;;;;;;;;;7.65;35.30;102407.69;4847029;29;19995;-75
2021/03/20 01:42:16;;;;;;;;;;;;;;;7.62;35.54;102395.38;4826003;29;19932;-75
2021/03/20 01:44:44;;;;;;;;;;;;;;;7.62;35.33;102395.38;4827831;29;20005;-75
2021/03/20 01:47:14;;;;;;;;;;;;;;;7.61;35.59;102392.72;4847224;29;23024;-75
2021/03/20 01:49:42;;;;;;;;;;;;;;;7.60;35.45;102383.03;4847774;29;20681;-75
2021/03/20 01:52:16;;;;;;;;;;;;;;;7.60;35.57;102373.41;4833237;29;20569;-75
2021/03/20 01:54:45;;;;;;;;;;;;;;;7.58;35.78;102380.41;4847918;29;20519;-74
2021/03/20 01:57:13;;;;;;;;;;;;;;;7.56;35.90;102379.47;4845330;29;19932;-75
2021/03/20 01:59:40;;;;;;;;;;;;;;;7.57;35.50;102373.34;4849368;29;19961;-74
2021/03/20 02:02:08;;;;;;;;;;;;;;;7.54;36.07;102368.06;4852821;29;20646;-74
2021/03/20 02:04:36;;;;;;;;;;;;;;;7.54;35.69;102375.97;4852591;29;20042;-74
2021/03/20 02:07:04;;;;;;;;;;;;;;;7.54;35.88;102375.06;4850372;29;19936;-75
2021/03/20 02:09:31;;;;;;;;;;;;;;;7.51;35.80;102380.31;4850206;29;19928;-74
2021/03/20 02:12:04;;;;;;;;;;;;;;;7.50;35.71;102373.25;4851384;29;20066;-75
2021/03/20 02:14:39;;;;;;;;;;;;;;;7.48;35.85;102376.78;4845764;29;19941;-75
2021/03/20 02:17:10;;;;;;;;;;;;;;;7.48;36.04;102378.53;4852428;29;19939;-74
2021/03/20 02:19:53;;;;;;;;;;;;;;;7.46;35.91;102369.75;4853444;29;20893;-74
2021/03/20 02:22:24;;;;;;;;;;;;;;;7.46;35.67;102372.38;4848687;29;20683;-74
2021/03/20 02:25:06;;;;;;;;;;;;;;;7.45;36.06;102374.09;4849243;29;19928;-74
2021/03/20 02:27:49;;;;;;;;;;;;;;;7.44;36.38;102371.44;4839862;29;20401;-74
2021/03/20 02:30:33;;;;;;;;;;;;;;;7.43;36.02;102365.31;4852056;29;19932;-74
2021/03/20 02:33:11;;;;;;;;;;;;;;;7.42;36.04;102366.19;4851066;29;19936;-75
2021/03/20 02:35:40;;;;;;;;;;;;;;;7.42;36.11;102360.00;4834855;29;19995;-75
2021/03/20 02:38:13;;;;;;;;;;;;;;;7.42;36.19;102360.00;4834995;29;19932;-75
2021/03/20 02:40:43;;;;;;;;;;;;;;;7.40;36.06;102364.38;4828309;29;19948;-75
2021/03/20 02:43:13;;;;;;;;;;;;;;;7.39;36.39;102359.97;4843038;29;19983;-75
2021/03/20 02:45:42;;;;;;;;;;;;;;;7.38;36.27;102355.56;4846787;29;20371;-75
2021/03/20 02:48:15;;;;;;;;;;;;;;;7.36;36.29;102357.31;4836115;29;19991;-74
2021/03/20 02:50:44;;;;;;;;;;;;;;;7.37;36.40;102351.16;4850708;29;19936;-75
2021/03/20 02:53:14;;;;;;;;;;;;;;;7.36;36.53;102347.66;4847602;29;19992;-74
2021/03/20 02:55:44;;;;;;;;;;;;;;;7.34;36.32;102348.50;4846923;29;19943;-73
2021/03/20 02:58:14;;;;;;;;;;;;;;;7.36;36.18;102344.16;4850360;29;20014;-74
2021/03/20 03:00:46;;;;;;;;;;;;;;;7.32;36.36;102333.56;4849773;29;20765;-74
2021/03/20 03:03:15;;;;;;;;;;;;;;;7.31;36.69;102330.94;4849176;29;19955;-74
2021/03/20 03:05:43;;;;;;;;;;;;;;;7.30;36.25;102330.06;4834341;29;19942;-75
2021/03/20 03:08:13;;;;;;;;;;;;;;;7.30;36.34;102326.53;4848851;29;20032;-74
2021/03/20 03:11:00;;;;;;;;;;;;;;;7.28;36.36;102328.28;4845282;29;19963;-75
2021/03/20 03:13:30;;;;;;;;;;;;;;;7.26;36.43;102333.53;4837583;29;19936;-75
2021/03/20 03:16:00;;;;;;;;;;;;;;;7.26;36.40;102325.63;4806847;29;19937;-74
2021/03/20 03:18:30;;;;;;;;;;;;;;;7.25;36.37;102321.22;4793278;29;20689;-75
2021/03/20 03:20:58;;;;;;;;;;;;;;;7.22;36.72;102315.94;4793949;29;25306;-75
2021/03/20 03:23:28;;;;;;;;;;;;;;;7.23;36.31;102314.19;4798499;29;21033;-75
2021/03/20 03:26:00;;;;;;;;;;;;;;;7.22;36.19;102308.03;4791472;29;20033;-75
2021/03/20 03:28:29;;;;;;;;;;;;;;;7.20;36.53;102315.03;4794024;29;19943;-75
2021/03/20 03:30:57;;;;;;;;;;;;;;;7.20;36.62;102314.16;4795274;29;19937;-75
2021/03/20 03:33:27;;;;;;;;;;;;;;;7.18;36.74;102314.09;4805702;29;19943;-75
2021/03/20 03:35:57;;;;;;;;;;;;;;;7.18;36.68;102316.72;4793375;29;20235;-75
2021/03/20 03:38:29;;;;;;;;;;;;;;;7.17;36.42;102308.81;4788893;29;20210;-75
2021/03/20 03:41:02;;;;;;;;;;;;;;;7.15;36.38;102307.06;4792426;29;20759;-74
2021/03/20 03:43:30;;;;;;;;;;;;;;;7.13;36.67;102307.91;4788878;29;20013;-76
2021/03/20 03:45:57;;;;;;;;;;;;;;;7.12;36.41;102304.41;4789689;29;19937;-75
2021/03/20 03:48:25;;;;;;;;;;;;;;;7.11;36.73;102301.75;4790541;29;19939;-75
2021/03/20 03:50:53;;;;;;;;;;;;;;;7.10;36.67;102306.13;4789409;29;19944;-75
2021/03/20 03:53:27;;;;;;;;;;;;;;;7.10;36.56;102306.13;4785261;29;19940;-76
2021/03/20 03:55:57;;;;;;;;;;;;;;;7.09;36.42;102308.72;4806992;29;20545;-74
2021/03/20 03:58:30;;;;;;;;;;;;;;;7.07;36.49;102308.72;4792414;29;20053;-74
2021/03/20 04:01:02;;;;;;;;;;;;;;;7.07;36.36;102303.47;4793462;29;20208;-74
2021/03/20 04:03:41;;;;;;;;;;;;;;;7.06;36.41;102306.06;4803023;29;20745;-75
2021/03/20 04:06:13;;;;;;;;;;;;;;;7.03;36.29;102301.66;4788619;29;19936;-74
2021/03/20 04:08:45;;;;;;;;;;;;;;;7.03;36.04;102295.53;4788391;29;19942;-74
2021/03/20 04:11:17;;;;;;;;;;;;;;;7.02;36.29;102293.75;4792570;29;19947;-75
2021/03/20 04:13:49;;;;;;;;;;;;;;;7.00;36.31;102293.75;4808111;29;19936;-75
2021/03/20 04:16:17;;;;;;;;;;;;;;;7.00;36.29;102299.00;4807221;29;19936;-75
2021/03/20 04:18:50;;;;;;;;;;;;;;;6.98;36.39;102298.97;4810320;29;20696;-76
2021/03/20 04:21:26;;;;;;;;;;;;;;;6.97;36.33;102301.56;4792498;29;19936;-75
2021/03/20 04:24:04;;;;;;;;;;;;;;;6.95;36.25;102287.53;4807385;29;20733;-76
2021/03/20 04:26:36;;;;;;;;;;;;;;;6.94;36.30;102291.88;4808858;29;20070;-74
2021/03/20 04:29:07;;;;;;;;;;;;;;;6.94;36.38;102283.13;4809639;29;20160;-74
2021/03/20 04:31:39;;;;;;;;;;;;;;;6.92;36.19;102280.47;4793843;29;20973;-73
2021/03/20 04:34:08;;;;;;;;;;;;;;;6.92;36.37;102263.78;4795647;29;20042;-73
2021/03/20 04:36:37;;;;;;;;;;;;;;;6.91;36.13;102259.44;4807388;29;19943;-75
2021/03/20 04:39:07;;;;;;;;;;;;;;;6.90;36.33;102266.41;4812296;29;20458;-74
2021/03/20 04:41:34;;;;;;;;;;;;;;;6.90;36.28;102262.91;4809182;29;20008;-74
2021/03/20 04:44:01;;;;;;;;;;;;;;;6.87;36.29;102261.13;4808212;29;19946;-74
2021/03/20 04:46:32;;;;;;;;;;;;;;;6.88;36.54;102262.91;4805822;29;20413;-74
2021/03/20 04:49:04;;;;;;;;;;;;;;;6.89;36.26;102258.50;4805369;29;20337;-74
2021/03/20 04:51:35;;;;;;;;;;;;;;;6.87;36.63;102249.69;4807614;29;20027;-75
2021/03/20 04:54:08;;;;;;;;;;;;;;;6.87;36.56;102242.72;4798712;29;19946;-74
2021/03/20 04:56:38;;;;;;;;;;;;;;;6.86;36.60;102247.97;4796340;29;19940;-74
2021/03/20 04:59:13;;;;;;;;;;;;;;;6.85;36.47;102243.56;4811425;29;20007;-74
2021/03/20 05:01:44;;;;;;;;;;;;;;;6.85;36.72;102231.28;4798509;29;20971;-75
2021/03/20 05:04:16;;;;;;;;;;;;;;;6.85;36.65;102230.41;4791555;29;19944;-76
2021/03/20 05:06:45;;;;;;;;;;;;;;;6.84;36.11;102228.63;4806599;29;20120;-75
2021/03/20 05:09:19;;;;;;;;;;;;;;;6.84;36.26;102226.88;4810080;29;20607;-73
2021/03/20 05:11:51;;;;;;;;;;;;;;;6.83;36.65;102222.50;4809471;29;19940;-75
2021/03/20 05:14:23;;;;;;;;;;;;;;;6.81;36.52;102217.19;4822600;29;20439;-74
2021/03/20 05:16:51;;;;;;;;;;;;;;;6.80;36.58;102219.81;4805136;29;20488;-74
2021/03/20 05:19:20;;;;;;;;;;;;;;;6.80;36.66;102210.19;4804703;29;19936;-72
2021/03/20 05:21:49;;;;;;;;;;;;;;;6.80;36.65;102207.56;4810579;29;19936;-73
2021/03/20 05:24:18;;;;;;;;;;;;;;;6.80;36.45;102212.81;4809282;29;19936;-73
2021/03/20 05:26:46;;;;;;;;;;;;;;;6.79;36.32;102208.41;4808887;29;19936;-74
2021/03/20 05:29:13;;;;;;;;;;;;;;;6.81;36.12;102205.81;4814436;29;20002;-74
2021/03/20 05:31:40;;;;;;;;;;;;;;;6.80;36.32;102204.94;4789571;29;19932;-74
2021/03/20 05:34:15;;;;;;;;;;;;;;;6.80;36.27;102194.41;4816945;29;20007;-74
2021/03/20 05:36:42;;;;;;;;;;;;;;;6.79;35.89;102190.00;4813432;29;19946;-75
2021/03/20 05:39:09;;;;;;;;;;;;;;;6.81;36.43;102185.63;4818629;29;19936;-75
2021/03/20 05:41:43;;;;;;;;;;;;;;;6.83;36.07;102177.78;4818181;29;19936;-76
2021/03/20 05:44:18;;;;;;;;;;;;;;;6.84;36.19;102183.91;4812380;29;19988;-75
2021/03/20 05:46:51;;;;;;;;;;;;;;;6.85;36.31;102189.19;4816757;29;19943;-76
2021/03/20 05:49:36;;;;;;;;;;;;;;;6.89;36.10;102183.09;4817380;29;20475;-74
2021/03/20 05:52:18;;;;;;;;;;;;;;;6.92;35.79;102183.13;4817060;29;20431;-74
2021/03/20 05:55:01;;;;;;;;;;;;;;;6.96;35.90;102184.94;4820706;29;19936;-75
2021/03/20 05:57:51;;;;;;;;;;;;;;;7.03;35.77;102191.13;4810669;29;19924;-84
2021/03/20 06:00:25;;;;;;;;;;;;;;;7.11;35.60;102197.34;4822369;29;19929;-74
2021/03/20 06:03:04;;;;;;;;;;;;;;;7.14;35.48;102189.50;4822635;29;19968;-76
2021/03/20 06:05:44;;;;;;;;;;;;;;;7.20;35.20;102185.19;4823804;29;20005;-73
2021/03/20 06:15:34;;;;;;;;;;;;;;;7.23;35.42;102195.72;4807992;29;20354;-72
2021/03/20 06:21:33;;;;;;;;;;;;;;;7.36;34.92;102197.59;4823155;29;20009;-75
2021/03/20 06:24:21;;;;;;;;;;;;;;;7.36;34.88;102192.34;4823036;29;20378;-74
2021/03/20 06:26:53;;;;;;;;;;;;;;;7.41;34.93;102195.03;4823371;29;20415;-75
2021/03/20 06:40:27;;;;;;;;;;;;;;;7.42;34.71;102202.03;4802254;29;20447;-75
2021/03/20 06:42:58;;;;;;;;;;;;;;;7.41;34.89;102197.66;4803443;29;20001;-75
2021/03/20 06:45:30;;;;;;;;;;;;;;;7.41;35.31;102187.13;4825127;29;19960;-75
2021/03/20 06:48:00;;;;;;;;;;;;;;;7.44;34.89;102190.63;4825945;29;20314;-74
2021/03/20 06:50:33;;;;;;;;;;;;;;;7.47;34.76;102187.16;4826224;29;19929;-74
2021/03/20 06:53:05;;;;;;;;;;;;;;;7.50;34.68;102181.03;4825906;29;20326;-75
2021/03/20 06:55:37;;;;;;;;;;;;;;;7.55;34.51;102182.84;4825820;29;20405;-75
2021/03/20 06:58:14;;;;;;;;;;;;;;;7.58;34.62;102174.97;4825196;29;20498;-75
2021/03/20 07:00:43;;;;;;;;;;;;;;;7.64;34.30;102171.50;4825327;29;19929;-75
2021/03/20 07:06:41;;;;;;;;;;;;;;;7.67;34.45;102163.63;4825506;29;19935;-74
2021/03/20 07:09:11;;;;;;;;;;;;;;;7.72;34.07;102167.19;4825719;29;20374;-75
2021/03/20 07:11:44;;;;;;;;;;;;;;;7.77;34.28;102152.28;4825340;29;19985;-76
2021/03/20 07:14:33;;;;;;;;;;;;;;;7.89;33.99;102154.13;4825224;29;20434;-75
2021/03/20 07:17:04;;;;;;;;;;;;;;;7.96;34.10;102150.63;4825285;29;20418;-76
2021/03/20 07:19:35;;;;;;;;;;;;;;;7.98;33.78;102141.00;4825636;29;19932;-76
2021/03/20 07:22:07;;;;;;;;;;;;;;;8.02;33.98;102141.88;4825654;29;20295;-74
2021/03/20 07:24:38;;;;;;;;;;;;;;;8.02;33.60;102141.00;4823784;29;20364;-75
2021/03/20 07:27:21;;;;;;;;;;;;;;;8.12;33.95;102145.47;4824906;29;20365;-76
2021/03/20 07:29:51;;;;;;;;;;;;;;;8.22;33.73;102130.56;4825293;29;20401;-75
2021/03/20 07:32:32;;;;;;;;;;;;;;;8.27;33.72;102126.19;4825128;29;20298;-75
2021/03/20 07:35:14;;;;;;;;;;;;;;;8.32;33.41;102127.09;4825421;29;19928;-75
2021/03/20 07:37:44;;;;;;;;;;;;;;;8.47;33.08;102123.69;4825146;29;19971;-76
2021/03/20 07:43:59;;;;;;;;;;;;;;;8.81;32.59;102123.72;4825374;29;20047;-74
2021/03/20 07:46:29;;;;;;;;;;;;;;;8.94;32.41;102127.28;4825181;29;19929;-74
2021/03/20 07:48:59;;;;;;;;;;;;;;;9.04;31.92;102122.91;4825017;29;20316;-74
2021/03/20 07:51:45;;;;;;;;;;;;;;;9.17;32.07;102121.16;4825061;29;20259;-75
2021/03/20 07:54:23;;;;;;;;;;;;;;;9.43;31.49;102108.81;4823828;29;20375;-77
2021/03/20 07:56:54;;;;;;;;;;;;;;;9.82;30.75;102099.94;4808463;29;19933;-74
2021/03/20 07:59:28;;;;;;;;;;;;;;;10.02;30.77;102095.50;4824475;29;20303;-75
2021/03/20 08:01:58;;;;;;;;;;;;;;;10.32;30.18;102090.06;4824720;29;19964;-75
2021/03/20 08:04:46;;;;;;;;;;;;;;;10.52;29.87;102082.03;4825078;29;20414;-78
2021/03/20 08:07:27;;;;;;;;;;;;;;;10.66;29.72;102082.84;4824321;29;20336;-76
2021/03/20 08:10:07;;;;;;;;;;;;;;;10.68;29.84;102078.44;4824632;29;19936;-75
2021/03/20 08:12:51;;;;;;;;;;;;;;;10.89;29.73;102069.47;4825064;29;19929;-75
2021/03/20 08:15:24;;;;;;;;;;;;;;;11.10;28.81;102075.47;4824790;29;19972;-76
2021/03/20 08:17:54;;;;;;;;;;;;;;;11.18;28.90;102072.78;4824615;29;20398;-76
2021/03/20 08:20:25;;;;;;;;;;;;;;;11.46;28.74;102068.97;4824576;29;20378;-76
2021/03/20 08:23:11;;;;;;;;;;;;;;;11.87;27.95;102065.88;4824275;29;20272;-75
2021/03/20 08:25:49;;;;;;;;;;;;;;;12.22;27.61;102059.28;4824837;29;19933;-76
2021/03/20 08:28:49;;;;;;;;;;;;;;;12.31;27.54;102066.25;4824605;29;20414;-76
2021/03/20 08:31:41;;;;;;;;;;;;;;;12.07;28.05;102060.38;4824305;29;19956;-77
2021/03/20 08:34:28;;;;;;;;;;;;;;;11.77;28.43;102052.72;4824513;29;19971;-77
2021/03/20 08:37:07;;;;;;;;;;;;;;;11.55;28.84;102061.81;4813287;29;20280;-76
2021/03/20 08:39:49;;;;;;;;;;;;;;;11.30;29.54;102059.41;4824341;29;20316;-76
2021/03/20 08:42:28;;;;;;;;;;;;;;;11.10;29.67;102063.09;4824618;29;20349;-77
2021/03/20 08:45:11;;;;;;;;;;;;;;;11.08;29.77;102062.25;4824262;29;20395;-77
2021/03/20 08:48:04;;;;;;;;;;;;;;;11.17;29.58;102061.28;4823947;29;20355;-77
2021/03/20 08:50:41;;;;;;;;;;;;;;;11.27;29.60;102052.34;4823729;29;20399;-76
2021/03/20 09:00:29;;;;;;;;;;;;;;;11.27;29.46;102054.16;4746687;29;19940;-75
2021/03/20 09:03:04;;;;;;;;;;;;;;;11.20;29.62;102052.44;4823685;29;20021;-76
2021/03/20 09:05:36;;;;;;;;;;;;;;;10.98;29.89;102063.22;4823632;29;19929;-76
2021/03/20 09:08:09;;;;;;;;;;;;;;;10.80;30.48;102057.16;4824129;29;20431;-75
2021/03/20 09:10:42;;;;;;;;;;;;;;;10.67;31.08;102060.78;4824643;29;19928;-75
2021/03/20 09:13:16;;;;;;;;;;;;;;;10.60;31.23;102064.38;4824056;29;19940;-74
2021/03/20 09:16:47;;;;;;;;;;;;;;;10.72;30.58;102063.41;4822047;29;19936;-74
2021/03/20 09:19:52;;;;;;;;;;;;;;;10.76;30.61;102065.16;4823605;29;19935;-75
2021/03/20 09:22:23;;;;;;;;;;;;;;;10.82;30.62;102057.16;4824188;29;20011;-74
2021/03/20 09:24:54;;;;;;;;;;;;;;;10.94;30.23;102054.41;4823988;29;19989;-74
2021/03/20 09:27:50;;;;;;;;;;;;;;;10.94;30.63;102048.25;4824259;29;20336;-74
2021/03/20 09:30:21;;;;;;;;;;;;;;;11.04;30.32;102038.44;4791482;29;19945;-75
2021/03/20 09:32:51;;;;;;;;;;;;;;;11.11;30.40;102025.16;4823019;29;20335;-74
2021/03/20 09:35:24;;;;;;;;;;;;;;;11.26;29.82;102026.75;4823483;29;20459;-74
2021/03/20 09:37:55;;;;;;;;;;;;;;;11.34;29.97;102029.31;4823868;29;19964;-73
2021/03/20 09:40:42;;;;;;;;;;;;;;;11.42;29.70;102024.81;4823592;29;20439;-74
2021/03/20 09:50:37;;;;;;;;;;;;;;;11.11;30.20;102005.75;4823568;29;19929;-73
2021/03/20 09:56:29;;;;;;;;;;;;;;;11.23;30.60;102004.75;4823520;29;20395;-74
2021/03/20 09:58:59;;;;;;;;;;;;;;;11.36;29.91;102001.06;4823125;29;20460;-73
2021/03/20 10:01:47;;;;;;;;;;;;;;;11.41;29.78;101999.25;4822715;29;20384;-74
2021/03/20 10:04:27;;;;;;;;;;;;;;;11.45;30.00;101998.31;4823791;29;20374;-74
2021/03/20 10:07:15;;;;;;;;;;;;;;;11.50;29.93;101994.72;4822272;29;20251;-74
2021/03/20 10:09:55;;;;;;;;;;;;;;;11.60;29.72;101993.72;4823276;29;20028;-73
2021/03/20 10:12:25;;;;;;;;;;;;;;;11.50;30.60;101987.66;4823102;29;19936;-73
2021/03/20 10:15:01;;;;;;;;;;;;;;;12.51;46.17;101994.31;4822900;29;20424;-71
2021/03/20 10:17:33;;;;;;;;;;;;;;;13.34;47.97;101979.56;4823556;29;20404;-71
2021/03/20 10:20:14;;;;;;;;;;;;;;;13.91;44.56;101973.13;4826742;29;20275;-75
2021/03/20 10:22:55;;;;;;;;;;;;;;;14.48;41.82;101964.75;4827056;29;20400;-73
2021/03/20 10:25:26;;;;;;;;;;;;;;;14.75;41.27;101956.09;4826503;29;20366;-72
2021/03/20 10:28:15;;;;;;;;;;;;;;;14.84;40.36;101956.75;4826455;29;19933;-75
2021/03/20 10:30:55;;;;;;;;;;;;;;;14.60;39.50;101949.34;4828721;29;20391;-75
2021/03/20 10:36:39;;;;;;;;;;;;;;;14.18;40.07;101952.09;4826733;29;20028;-75
2021/03/20 10:39:30;;;;;;;;;;;;;;;14.20;38.86;101937.00;4826053;29;20308;-75
2021/03/20 10:42:04;;;;;;;;;;;;;;;14.35;36.89;101935.72;4826016;29;19929;-75
2021/03/20 10:44:37;;;;;;;;;;;;;;;14.50;35.23;101922.97;4825939;29;19929;-75
2021/03/20 10:47:14;;;;;;;;;;;;;;;14.45;34.32;101913.31;4826396;29;19928;-75
2021/03/20 10:49:49;;;;;;;;;;;;;;;14.07;34.56;101909.78;4826936;29;19964;-75
2021/03/20 10:52:19;;;;;;;;;;;;;;;13.88;35.12;101913.78;4826363;29;20286;-75
2021/03/20 12:07:25;;;;;;;;;;;;;;;12.29;35.24;101806.22;4853590;29;19951;-74
2021/03/20 12:09:53;;;;;;;;;;;;;;;12.33;35.42;101801.75;4845782;29;19931;-74
2021/03/20 12:12:40;;;;;;;;;;;;;;;12.26;35.45;101806.28;4863973;29;19936;-76
2021/03/20 12:15:25;;;;;;;;;;;;;;;12.25;35.42;101799.22;4864833;29;19963;-75
2021/03/20 12:17:54;;;;;;;;;;;;;;;12.15;35.67;101795.88;4846487;29;19932;-74
2021/03/20 12:20:27;;;;;;;;;;;;;;;12.09;35.93;101788.88;4850893;29;19928;-75
2021/03/20 12:23:10;;;;;;;;;;;;;;;12.11;35.92;101775.63;4851364;29;19939;-75
2021/03/20 12:25:44;;;;;;;;;;;;;;;12.12;36.08;101766.72;4856930;29;19928;-75
2021/03/20 12:28:30;;;;;;;;;;;;;;;12.10;35.95;101756.16;4861261;29;20641;-73
2021/03/20 12:31:02;;;;;;;;;;;;;;;11.94;36.62;101749.34;4842305;29;19971;-73
2021/03/20 12:33:29;;;;;;;;;;;;;;;11.84;36.84;101748.63;4846617;29;19932;-75
2021/03/20 12:35:56;;;;;;;;;;;;;;;11.78;36.99;101744.31;4856926;29;19932;-74
2021/03/20 12:38:25;;;;;;;;;;;;;;;11.70;37.26;101740.03;4861102;29;20614;-73
2021/03/20 12:40:53;;;;;;;;;;;;;;;11.61;37.59;101733.97;4859242;29;20878;-74
2021/03/20 12:43:23;;;;;;;;;;;;;;;11.61;37.54;101726.03;4857293;29;19939;-75
2021/03/20 12:45:51;;;;;;;;;;;;;;;11.61;37.30;101720.72;4843424;29;20018;-75
2021/03/20 12:48:18;;;;;;;;;;;;;;;11.52;37.73;101717.34;4842477;29;19932;-75
2021/03/20 12:50:46;;;;;;;;;;;;;;;11.53;37.40;101711.13;4862052;29;19932;-76
2021/03/20 12:53:13;;;;;;;;;;;;;;;11.63;37.00;101708.34;4858159;29;19944;-75
2021/03/20 12:56:00;;;;;;;;;;;;;;;11.75;36.84;101698.41;4857786;29;19939;-76
2021/03/20 12:58:27;;;;;;;;;;;;;;;11.81;36.77;101682.41;4855529;29;19939;-76
2021/03/20 13:00:54;;;;;;;;;;;;;;;11.87;36.69;101684.06;4856654;29;19938;-76
2021/03/20 13:03:21;;;;;;;;;;;;;;;11.71;36.89;101679.03;4848933;29;19979;-75
2021/03/20 13:05:48;;;;;;;;;;;;;;;11.80;37.05;101667.41;4858744;29;19938;-75
2021/03/20 13:08:15;;;;;;;;;;;;;;;11.75;37.23;101664.84;4859635;29;19936;-76
2021/03/20 13:10:43;;;;;;;;;;;;;;;11.73;37.16;101652.53;4856517;29;19961;-74
2021/03/20 13:13:11;;;;;;;;;;;;;;;11.60;37.49;101651.84;4842142;29;19944;-74
2021/03/20 13:15:38;;;;;;;;;;;;;;;11.59;37.37;101650.97;4837425;29;19938;-74
2021/03/20 13:18:05;;;;;;;;;;;;;;;11.63;37.34;101643.84;4855048;29;19928;-74
2021/03/20 13:20:44;;;;;;;;;;;;;;;11.58;37.48;101635.97;4858449;29;19932;-75
2021/03/20 13:23:14;;;;;;;;;;;;;;;11.57;37.46;101636.88;4854276;29;20370;-74
2021/03/20 13:25:41;;;;;;;;;;;;;;;11.44;37.99;101630.91;4858746;29;20010;-74
2021/03/20 13:28:10;;;;;;;;;;;;;;;11.41;38.12;101630.06;4853527;29;19932;-74
2021/03/20 13:30:39;;;;;;;;;;;;;;;11.36;38.32;101627.53;4835794;29;19939;-74
2021/03/20 13:33:06;;;;;;;;;;;;;;;11.38;38.17;101615.09;4857419;29;20013;-73
2021/03/20 13:35:35;;;;;;;;;;;;;;;11.28;38.48;101603.81;4840110;29;19928;-74
2021/03/20 13:38:02;;;;;;;;;;;;;;;11.28;38.41;101606.44;4839650;29;20038;-74
2021/03/20 13:40:31;;;;;;;;;;;;;;;11.18;38.92;101604.84;4858791;29;20503;-74
2021/03/20 13:42:58;;;;;;;;;;;;;;;11.21;38.64;101602.13;4834681;29;19961;-73
2021/03/20 13:45:26;;;;;;;;;;;;;;;11.20;38.90;101597.78;4837544;29;19978;-73
2021/03/20 13:47:54;;;;;;;;;;;;;;;11.14;39.13;101597.84;4856825;29;20694;-74
2021/03/20 13:50:21;;;;;;;;;;;;;;;11.16;38.83;101597.84;4855626;29;19946;-74
2021/03/20 13:52:48;;;;;;;;;;;;;;;11.09;38.90;101589.97;4855659;29;20467;-74
2021/03/20 13:55:15;;;;;;;;;;;;;;;11.06;39.41;101587.38;4840799;29;19985;-74
2021/03/20 13:57:42;;;;;;;;;;;;;;;11.12;38.89;101584.66;4852040;29;19936;-74
2021/03/20 18:20:30;;;;;;;;;;;;;;;8.86;46.83;101092.06;4841726;29;20011;-75
2021/03/20 18:23:00;;;;;;;;;;;;;;;8.83;47.57;101086.84;4841373;29;19936;-75
2021/03/20 18:25:29;;;;;;;;;;;;;;;8.82;47.15;101088.59;4841226;29;20394;-75
2021/03/20 18:27:58;;;;;;;;;;;;;;;8.80;47.03;101071.94;4841367;29;20385;-75
2021/03/20 18:30:32;;;;;;;;;;;;;;;8.79;47.72;101065.75;4841924;29;20370;-75
2021/03/20 18:33:02;;;;;;;;;;;;;;;8.80;47.80;101077.19;4840977;29;20389;-75
2021/03/20 18:35:35;;;;;;;;;;;;;;;8.77;48.11;101064.94;4841624;29;19928;-76
2021/03/20 18:38:05;;;;;;;;;;;;;;;8.77;48.16;101064.94;4841163;29;20359;-75
2021/03/20 18:40:35;;;;;;;;;;;;;;;8.75;48.01;101063.22;4844404;29;20024;-75
2021/03/20 18:43:04;;;;;;;;;;;;;;;8.74;48.40;101058.81;4844780;29;19936;-75
2021/03/20 18:45:33;;;;;;;;;;;;;;;8.72;48.37;101050.94;4844816;29;19935;-76
2021/03/20 18:48:02;;;;;;;;;;;;;;;8.71;48.11;101036.00;4844311;29;20012;-76
2021/03/20 18:50:35;;;;;;;;;;;;;;;8.70;48.47;101036.03;4845013;29;19928;-75
2021/03/20 18:53:07;;;;;;;;;;;;;;;8.69;48.71;101026.34;4844470;29;20290;-76
2021/03/20 18:55:37;;;;;;;;;;;;;;;8.67;48.91;101021.13;4844457;29;19929;-75
2021/03/20 18:58:08;;;;;;;;;;;;;;;8.64;49.16;101013.22;4844836;29;20331;-76
2021/03/20 19:00:39;;;;;;;;;;;;;;;8.66;48.42;101013.22;4844509;29;20395;-77
2021/03/20 19:03:10;;;;;;;;;;;;;;;8.74;47.57;101006.06;4844386;29;20410;-77
2021/03/20 19:05:42;;;;;;;;;;;;;;;8.79;45.12;100993.69;4844756;29;19929;-77
2021/03/20 19:08:13;;;;;;;;;;;;;;;8.85;44.10;100997.97;4844098;29;19929;-76
2021/03/20 19:10:44;;;;;;;;;;;;;;;8.88;44.02;100998.81;4844312;29;19977;-75
2021/03/20 19:13:14;;;;;;;;;;;;;;;8.89;42.54;100997.91;4844389;29;20282;-77
2021/03/20 19:15:44;;;;;;;;;;;;;;;8.82;44.08;101001.53;4843680;29;20367;-74
2021/03/20 19:18:19;;;;;;;;;;;;;;;8.78;44.61;100994.56;4844223;29;20023;-76
2021/03/20 19:20:50;;;;;;;;;;;;;;;8.75;44.84;100990.22;4843786;29;20410;-77
2021/03/20 19:23:23;;;;;;;;;;;;;;;8.78;45.63;100991.94;4843775;29;20455;-77
2021/03/20 19:25:53;;;;;;;;;;;;;;;8.84;43.88;100972.47;4844618;29;19949;-77
2021/03/20 19:28:26;;;;;;;;;;;;;;;8.88;43.00;100982.97;4844825;29;19929;-77
2021/03/20 19:30:56;;;;;;;;;;;;;;;8.92;42.52;100976.75;4843672;29;20380;-76
2021/03/20 19:33:26;;;;;;;;;;;;;;;8.96;41.98;100980.22;4843895;29;20044;-77